sensor_id;sensor_type;location;lat;lon;timestamp;P1;durP1;ratioP1;P2;durP2;ratioP2
13816;SDS011;6979;52.116;5.286;2023-08-07T00:01:47;4.80;;;2.67;;
13816;SDS011;6979;52.116;5.286;2023-08-07T00:04:14;6.33;;;2.80;;
13816;SDS011;6979;52.116;5.286;2023-08-07T00:06:41;6.23;;;3.20;;
13816;SDS011;6979;52.116;5.286;2023-08-07T00:09:09;4.67;;;2.60;;
13816;SDS011;6979;52.116;5.286;2023-08-07T00:11:36;5.00;;;2.70;;
13816;SDS011;6979;52.116;5.286;2023-08-07T00:14:03;6.80;;;2.97;;
13816;SDS011;6979;52.116;5.286;2023-08-07T00:16:30;6.10;;;3.17;;
13816;SDS011;6979;52.116;5.286;2023-08-07T00:18:57;5.73;;;3.33;;
13816;SDS011;6979;52.116;5.286;2023-08-07T00:21:23;7.60;;;2.90;;
13816;SDS011;6979;52.116;5.286;2023-08-07T00:23:51;5.73;;;2.77;;
13816;SDS011;6979;52.116;5.286;2023-08-07T00:26:19;5.20;;;3.00;;
13816;SDS011;6979;52.116;5.286;2023-08-07T00:28:46;4.97;;;2.80;;
13816;SDS011;6979;52.116;5.286;2023-08-07T00:31:13;4.80;;;2.53;;
13816;SDS011;6979;52.116;5.286;2023-08-07T00:33:40;6.17;;;3.30;;
13816;SDS011;6979;52.116;5.286;2023-08-07T00:36:07;5.13;;;2.70;;
13816;SDS011;6979;52.116;5.286;2023-08-07T00:38:34;7.93;;;3.30;;
13816;SDS011;6979;52.116;5.286;2023-08-07T00:41:01;6.83;;;3.10;;
13816;SDS011;6979;52.116;5.286;2023-08-07T00:43:29;2.40;;;2.20;;
13816;SDS011;6979;52.116;5.286;2023-08-07T00:45:56;5.93;;;2.80;;
13816;SDS011;6979;52.116;5.286;2023-08-07T00:48:23;6.60;;;2.80;;
13816;SDS011;6979;52.116;5.286;2023-08-07T00:50:51;7.33;;;3.17;;
13816;SDS011;6979;52.116;5.286;2023-08-07T00:53:19;5.33;;;2.90;;
13816;SDS011;6979;52.116;5.286;2023-08-07T00:55:46;7.97;;;2.90;;
13816;SDS011;6979;52.116;5.286;2023-08-07T00:58:13;6.93;;;2.93;;
13816;SDS011;6979;52.116;5.286;2023-08-07T01:00:42;5.83;;;2.87;;
13816;SDS011;6979;52.116;5.286;2023-08-07T01:03:10;4.00;;;2.67;;
13816;SDS011;6979;52.116;5.286;2023-08-07T01:05:39;7.00;;;3.50;;
13816;SDS011;6979;52.116;5.286;2023-08-07T01:08:06;6.37;;;2.70;;
13816;SDS011;6979;52.116;5.286;2023-08-07T01:10:35;5.97;;;3.37;;
13816;SDS011;6979;52.116;5.286;2023-08-07T01:13:18;4.80;;;2.63;;
13816;SDS011;6979;52.116;5.286;2023-08-07T01:15:52;7.00;;;3.57;;
13816;SDS011;6979;52.116;5.286;2023-08-07T01:18:25;7.13;;;3.13;;
13816;SDS011;6979;52.116;5.286;2023-08-07T01:20:53;7.47;;;3.10;;
13816;SDS011;6979;52.116;5.286;2023-08-07T01:23:21;3.80;;;2.60;;
13816;SDS011;6979;52.116;5.286;2023-08-07T01:25:48;4.33;;;2.53;;
13816;SDS011;6979;52.116;5.286;2023-08-07T01:28:19;6.53;;;2.80;;
13816;SDS011;6979;52.116;5.286;2023-08-07T01:30:54;6.83;;;2.73;;
13816;SDS011;6979;52.116;5.286;2023-08-07T01:33:31;6.57;;;2.73;;
13816;SDS011;6979;52.116;5.286;2023-08-07T01:36:01;5.53;;;2.47;;
13816;SDS011;6979;52.116;5.286;2023-08-07T01:38:33;4.07;;;2.17;;
13816;SDS011;6979;52.116;5.286;2023-08-07T01:41:01;5.37;;;2.50;;
13816;SDS011;6979;52.116;5.286;2023-08-07T01:43:29;7.03;;;3.10;;
13816;SDS011;6979;52.116;5.286;2023-08-07T01:46:00;5.17;;;2.30;;
13816;SDS011;6979;52.116;5.286;2023-08-07T01:48:28;5.87;;;2.20;;
13816;SDS011;6979;52.116;5.286;2023-08-07T01:50:55;3.13;;;2.03;;
13816;SDS011;6979;52.116;5.286;2023-08-07T01:53:24;7.23;;;2.93;;
13816;SDS011;6979;52.116;5.286;2023-08-07T01:55:54;9.67;;;2.13;;
13816;SDS011;6979;52.116;5.286;2023-08-07T01:58:21;4.13;;;2.60;;
13816;SDS011;6979;52.116;5.286;2023-08-07T02:00:48;4.07;;;2.27;;
13816;SDS011;6979;52.116;5.286;2023-08-07T02:03:15;5.50;;;2.50;;
13816;SDS011;6979;52.116;5.286;2023-08-07T02:05:44;4.00;;;2.60;;
13816;SDS011;6979;52.116;5.286;2023-08-07T02:08:11;4.50;;;2.60;;
13816;SDS011;6979;52.116;5.286;2023-08-07T02:10:39;5.70;;;2.57;;
13816;SDS011;6979;52.116;5.286;2023-08-07T02:13:07;4.93;;;2.63;;
13816;SDS011;6979;52.116;5.286;2023-08-07T02:15:34;4.17;;;2.80;;
13816;SDS011;6979;52.116;5.286;2023-08-07T02:18:02;7.73;;;2.90;;
13816;SDS011;6979;52.116;5.286;2023-08-07T02:20:29;5.07;;;2.40;;
13816;SDS011;6979;52.116;5.286;2023-08-07T02:22:56;5.00;;;3.13;;
13816;SDS011;6979;52.116;5.286;2023-08-07T02:25:22;5.83;;;2.70;;
13816;SDS011;6979;52.116;5.286;2023-08-07T02:27:49;4.23;;;2.47;;
13816;SDS011;6979;52.116;5.286;2023-08-07T02:30:18;3.53;;;1.97;;
13816;SDS011;6979;52.116;5.286;2023-08-07T02:32:45;5.27;;;2.43;;
13816;SDS011;6979;52.116;5.286;2023-08-07T02:35:11;5.73;;;2.67;;
13816;SDS011;6979;52.116;5.286;2023-08-07T02:37:38;3.90;;;2.50;;
13816;SDS011;6979;52.116;5.286;2023-08-07T02:40:06;5.90;;;2.90;;
13816;SDS011;6979;52.116;5.286;2023-08-07T02:42:36;7.10;;;3.07;;
13816;SDS011;6979;52.116;5.286;2023-08-07T02:45:03;6.63;;;2.70;;
13816;SDS011;6979;52.116;5.286;2023-08-07T02:47:32;4.70;;;2.33;;
13816;SDS011;6979;52.116;5.286;2023-08-07T02:49:59;6.17;;;2.83;;
13816;SDS011;6979;52.116;5.286;2023-08-07T02:52:25;6.30;;;3.07;;
13816;SDS011;6979;52.116;5.286;2023-08-07T02:54:53;4.73;;;3.03;;
13816;SDS011;6979;52.116;5.286;2023-08-07T02:57:19;6.07;;;3.30;;
13816;SDS011;6979;52.116;5.286;2023-08-07T02:59:46;5.30;;;2.70;;
13816;SDS011;6979;52.116;5.286;2023-08-07T03:02:13;5.33;;;2.87;;
13816;SDS011;6979;52.116;5.286;2023-08-07T03:04:42;7.20;;;2.80;;
13816;SDS011;6979;52.116;5.286;2023-08-07T03:07:08;3.07;;;2.47;;
13816;SDS011;6979;52.116;5.286;2023-08-07T03:09:35;6.20;;;3.33;;
13816;SDS011;6979;52.116;5.286;2023-08-07T03:12:03;5.70;;;2.83;;
13816;SDS011;6979;52.116;5.286;2023-08-07T03:14:31;4.90;;;2.60;;
13816;SDS011;6979;52.116;5.286;2023-08-07T03:16:58;7.03;;;2.93;;
13816;SDS011;6979;52.116;5.286;2023-08-07T03:19:25;6.63;;;2.80;;
13816;SDS011;6979;52.116;5.286;2023-08-07T03:21:53;6.33;;;3.27;;
13816;SDS011;6979;52.116;5.286;2023-08-07T03:24:20;4.50;;;2.37;;
13816;SDS011;6979;52.116;5.286;2023-08-07T03:26:47;5.70;;;2.73;;
13816;SDS011;6979;52.116;5.286;2023-08-07T03:29:14;6.87;;;2.67;;
13816;SDS011;6979;52.116;5.286;2023-08-07T03:31:43;4.90;;;2.47;;
13816;SDS011;6979;52.116;5.286;2023-08-07T03:34:12;3.17;;;2.07;;
13816;SDS011;6979;52.116;5.286;2023-08-07T03:36:39;4.70;;;1.93;;
13816;SDS011;6979;52.116;5.286;2023-08-07T03:39:07;2.90;;;2.17;;
13816;SDS011;6979;52.116;5.286;2023-08-07T03:41:38;3.67;;;2.10;;
13816;SDS011;6979;52.116;5.286;2023-08-07T03:44:06;3.63;;;2.03;;
13816;SDS011;6979;52.116;5.286;2023-08-07T03:46:33;2.67;;;1.87;;
13816;SDS011;6979;52.116;5.286;2023-08-07T03:49:00;4.87;;;2.80;;
13816;SDS011;6979;52.116;5.286;2023-08-07T03:51:28;4.23;;;2.30;;
13816;SDS011;6979;52.116;5.286;2023-08-07T03:53:57;2.60;;;2.10;;
13816;SDS011;6979;52.116;5.286;2023-08-07T03:56:27;2.60;;;2.40;;
13816;SDS011;6979;52.116;5.286;2023-08-07T03:59:01;6.13;;;2.47;;
13816;SDS011;6979;52.116;5.286;2023-08-07T04:01:29;4.93;;;2.70;;
13816;SDS011;6979;52.116;5.286;2023-08-07T04:03:56;2.17;;;1.97;;
13816;SDS011;6979;52.116;5.286;2023-08-07T04:06:23;4.57;;;2.20;;
13816;SDS011;6979;52.116;5.286;2023-08-07T04:08:52;2.77;;;2.20;;
13816;SDS011;6979;52.116;5.286;2023-08-07T04:11:20;4.63;;;2.57;;
13816;SDS011;6979;52.116;5.286;2023-08-07T04:13:49;5.73;;;2.90;;
13816;SDS011;6979;52.116;5.286;2023-08-07T04:16:16;6.03;;;2.10;;
13816;SDS011;6979;52.116;5.286;2023-08-07T04:18:43;3.40;;;2.30;;
13816;SDS011;6979;52.116;5.286;2023-08-07T04:21:10;5.77;;;2.77;;
13816;SDS011;6979;52.116;5.286;2023-08-07T04:23:38;5.57;;;2.47;;
13816;SDS011;6979;52.116;5.286;2023-08-07T04:26:05;5.10;;;3.23;;
13816;SDS011;6979;52.116;5.286;2023-08-07T04:28:32;5.87;;;2.67;;
13816;SDS011;6979;52.116;5.286;2023-08-07T04:31:01;6.03;;;2.67;;
13816;SDS011;6979;52.116;5.286;2023-08-07T04:33:28;3.13;;;2.60;;
13816;SDS011;6979;52.116;5.286;2023-08-07T04:35:55;5.73;;;2.60;;
13816;SDS011;6979;52.116;5.286;2023-08-07T04:38:22;3.57;;;2.57;;
13816;SDS011;6979;52.116;5.286;2023-08-07T04:40:49;4.77;;;2.83;;
13816;SDS011;6979;52.116;5.286;2023-08-07T04:43:18;5.03;;;2.97;;
13816;SDS011;6979;52.116;5.286;2023-08-07T04:45:46;5.57;;;2.60;;
13816;SDS011;6979;52.116;5.286;2023-08-07T04:48:14;5.70;;;2.80;;
13816;SDS011;6979;52.116;5.286;2023-08-07T04:50:42;4.63;;;2.63;;
13816;SDS011;6979;52.116;5.286;2023-08-07T04:53:09;6.57;;;2.80;;
13816;SDS011;6979;52.116;5.286;2023-08-07T04:55:36;5.00;;;2.87;;
13816;SDS011;6979;52.116;5.286;2023-08-07T04:58:04;4.63;;;2.67;;
13816;SDS011;6979;52.116;5.286;2023-08-07T05:00:31;6.63;;;3.67;;
13816;SDS011;6979;52.116;5.286;2023-08-07T05:02:58;5.37;;;2.77;;
13816;SDS011;6979;52.116;5.286;2023-08-07T05:05:26;6.33;;;2.73;;
13816;SDS011;6979;52.116;5.286;2023-08-07T05:07:54;3.73;;;2.40;;
13816;SDS011;6979;52.116;5.286;2023-08-07T05:10:20;4.90;;;2.53;;
13816;SDS011;6979;52.116;5.286;2023-08-07T05:12:47;3.90;;;2.73;;
13816;SDS011;6979;52.116;5.286;2023-08-07T05:15:20;3.83;;;2.73;;
13816;SDS011;6979;52.116;5.286;2023-08-07T05:17:47;7.93;;;3.03;;
13816;SDS011;6979;52.116;5.286;2023-08-07T05:20:14;5.37;;;3.03;;
13816;SDS011;6979;52.116;5.286;2023-08-07T05:22:42;6.80;;;2.87;;
13816;SDS011;6979;52.116;5.286;2023-08-07T05:25:09;7.60;;;3.57;;
13816;SDS011;6979;52.116;5.286;2023-08-07T05:27:37;3.20;;;2.43;;
13816;SDS011;6979;52.116;5.286;2023-08-07T05:30:05;4.13;;;2.67;;
13816;SDS011;6979;52.116;5.286;2023-08-07T05:32:32;4.43;;;3.37;;
13816;SDS011;6979;52.116;5.286;2023-08-07T05:35:03;6.17;;;2.87;;
13816;SDS011;6979;52.116;5.286;2023-08-07T05:37:30;7.40;;;3.03;;
13816;SDS011;6979;52.116;5.286;2023-08-07T05:39:59;3.57;;;2.30;;
13816;SDS011;6979;52.116;5.286;2023-08-07T05:42:27;3.63;;;2.10;;
13816;SDS011;6979;52.116;5.286;2023-08-07T05:44:54;4.93;;;2.60;;
13816;SDS011;6979;52.116;5.286;2023-08-07T05:47:21;2.93;;;2.03;;
13816;SDS011;6979;52.116;5.286;2023-08-07T05:49:48;4.13;;;2.50;;
13816;SDS011;6979;52.116;5.286;2023-08-07T05:52:15;4.17;;;2.30;;
13816;SDS011;6979;52.116;5.286;2023-08-07T05:54:43;4.97;;;2.40;;
13816;SDS011;6979;52.116;5.286;2023-08-07T05:57:11;4.57;;;2.37;;
13816;SDS011;6979;52.116;5.286;2023-08-07T05:59:38;4.00;;;2.13;;
13816;SDS011;6979;52.116;5.286;2023-08-07T06:02:05;3.93;;;3.10;;
13816;SDS011;6979;52.116;5.286;2023-08-07T06:04:32;6.07;;;2.50;;
13816;SDS011;6979;52.116;5.286;2023-08-07T06:06:59;5.00;;;2.77;;
13816;SDS011;6979;52.116;5.286;2023-08-07T06:09:28;7.27;;;2.97;;
13816;SDS011;6979;52.116;5.286;2023-08-07T06:11:55;5.37;;;2.80;;
13816;SDS011;6979;52.116;5.286;2023-08-07T06:14:23;7.07;;;3.20;;
13816;SDS011;6979;52.116;5.286;2023-08-07T06:16:50;5.47;;;2.80;;
13816;SDS011;6979;52.116;5.286;2023-08-07T06:19:17;6.83;;;2.87;;
13816;SDS011;6979;52.116;5.286;2023-08-07T06:21:45;5.77;;;3.30;;
13816;SDS011;6979;52.116;5.286;2023-08-07T06:24:12;6.40;;;2.80;;
13816;SDS011;6979;52.116;5.286;2023-08-07T06:26:39;8.13;;;3.23;;
13816;SDS011;6979;52.116;5.286;2023-08-07T06:29:09;6.83;;;3.70;;
13816;SDS011;6979;52.116;5.286;2023-08-07T06:31:37;5.50;;;3.33;;
13816;SDS011;6979;52.116;5.286;2023-08-07T06:34:04;6.30;;;3.30;;
13816;SDS011;6979;52.116;5.286;2023-08-07T06:36:31;7.60;;;3.17;;
13816;SDS011;6979;52.116;5.286;2023-08-07T06:38:59;8.10;;;3.10;;
13816;SDS011;6979;52.116;5.286;2023-08-07T06:41:26;5.73;;;3.03;;
13816;SDS011;6979;52.116;5.286;2023-08-07T06:43:53;7.60;;;2.87;;
13816;SDS011;6979;52.116;5.286;2023-08-07T06:46:20;6.40;;;3.30;;
13816;SDS011;6979;52.116;5.286;2023-08-07T06:48:53;9.83;;;3.47;;
13816;SDS011;6979;52.116;5.286;2023-08-07T06:51:20;9.47;;;3.50;;
13816;SDS011;6979;52.116;5.286;2023-08-07T06:53:47;5.90;;;3.47;;
13816;SDS011;6979;52.116;5.286;2023-08-07T06:56:15;5.37;;;3.30;;
13816;SDS011;6979;52.116;5.286;2023-08-07T06:58:42;6.47;;;3.80;;
13816;SDS011;6979;52.116;5.286;2023-08-07T07:01:09;8.03;;;3.50;;
13816;SDS011;6979;52.116;5.286;2023-08-07T07:03:36;4.27;;;3.47;;
13816;SDS011;6979;52.116;5.286;2023-08-07T07:06:05;6.60;;;3.63;;
13816;SDS011;6979;52.116;5.286;2023-08-07T07:08:32;6.87;;;3.43;;
13816;SDS011;6979;52.116;5.286;2023-08-07T07:10:59;4.27;;;3.40;;
13816;SDS011;6979;52.116;5.286;2023-08-07T07:13:26;7.10;;;3.03;;
13816;SDS011;6979;52.116;5.286;2023-08-07T07:15:55;4.07;;;3.03;;
13816;SDS011;6979;52.116;5.286;2023-08-07T07:18:22;4.33;;;3.03;;
13816;SDS011;6979;52.116;5.286;2023-08-07T07:20:55;4.27;;;2.67;;
13816;SDS011;6979;52.116;5.286;2023-08-07T07:23:25;5.87;;;3.30;;
13816;SDS011;6979;52.116;5.286;2023-08-07T07:25:52;6.37;;;3.70;;
13816;SDS011;6979;52.116;5.286;2023-08-07T07:28:19;6.03;;;3.23;;
13816;SDS011;6979;52.116;5.286;2023-08-07T07:30:46;5.20;;;3.17;;
13816;SDS011;6979;52.116;5.286;2023-08-07T07:33:13;4.73;;;2.90;;
13816;SDS011;6979;52.116;5.286;2023-08-07T07:35:40;6.63;;;3.40;;
13816;SDS011;6979;52.116;5.286;2023-08-07T07:38:07;4.67;;;3.47;;
13816;SDS011;6979;52.116;5.286;2023-08-07T07:40:36;5.80;;;3.33;;
13816;SDS011;6979;52.116;5.286;2023-08-07T07:43:04;4.63;;;3.07;;
13816;SDS011;6979;52.116;5.286;2023-08-07T07:45:31;6.80;;;4.13;;
13816;SDS011;6979;52.116;5.286;2023-08-07T07:47:59;6.20;;;3.20;;
13816;SDS011;6979;52.116;5.286;2023-08-07T07:50:25;7.93;;;4.23;;
13816;SDS011;6979;52.116;5.286;2023-08-07T07:52:53;6.93;;;3.70;;
13816;SDS011;6979;52.116;5.286;2023-08-07T07:55:19;7.03;;;3.90;;
13816;SDS011;6979;52.116;5.286;2023-08-07T07:57:48;6.30;;;3.47;;
13816;SDS011;6979;52.116;5.286;2023-08-07T08:00:15;6.30;;;3.60;;
13816;SDS011;6979;52.116;5.286;2023-08-07T08:02:45;5.67;;;3.93;;
13816;SDS011;6979;52.116;5.286;2023-08-07T08:05:13;7.70;;;4.07;;
13816;SDS011;6979;52.116;5.286;2023-08-07T08:07:43;13.53;;;7.90;;
13816;SDS011;6979;52.116;5.286;2023-08-07T08:10:09;5.53;;;4.27;;
13816;SDS011;6979;52.116;5.286;2023-08-07T08:12:37;8.60;;;3.67;;
13816;SDS011;6979;52.116;5.286;2023-08-07T08:15:06;7.20;;;3.73;;
13816;SDS011;6979;52.116;5.286;2023-08-07T08:17:33;8.03;;;3.63;;
13816;SDS011;6979;52.116;5.286;2023-08-07T08:20:00;5.10;;;2.90;;
13816;SDS011;6979;52.116;5.286;2023-08-07T08:22:27;6.33;;;3.60;;
13816;SDS011;6979;52.116;5.286;2023-08-07T08:24:54;8.00;;;3.60;;
13816;SDS011;6979;52.116;5.286;2023-08-07T08:27:22;5.03;;;3.17;;
13816;SDS011;6979;52.116;5.286;2023-08-07T08:29:51;7.80;;;2.80;;
13816;SDS011;6979;52.116;5.286;2023-08-07T08:32:19;6.97;;;3.63;;
13816;SDS011;6979;52.116;5.286;2023-08-07T08:34:46;7.53;;;3.73;;
13816;SDS011;6979;52.116;5.286;2023-08-07T08:37:14;5.60;;;3.70;;
13816;SDS011;6979;52.116;5.286;2023-08-07T08:39:41;6.83;;;3.77;;
13816;SDS011;6979;52.116;5.286;2023-08-07T08:42:08;7.50;;;3.43;;
13816;SDS011;6979;52.116;5.286;2023-08-07T08:44:38;5.70;;;3.50;;
13816;SDS011;6979;52.116;5.286;2023-08-07T08:47:06;7.17;;;3.20;;
13816;SDS011;6979;52.116;5.286;2023-08-07T08:49:37;5.53;;;2.77;;
13816;SDS011;6979;52.116;5.286;2023-08-07T08:52:11;6.50;;;2.87;;
13816;SDS011;6979;52.116;5.286;2023-08-07T08:54:38;2.83;;;2.20;;
13816;SDS011;6979;52.116;5.286;2023-08-07T08:57:06;5.50;;;3.10;;
13816;SDS011;6979;52.116;5.286;2023-08-07T08:59:33;5.93;;;3.40;;
13816;SDS011;6979;52.116;5.286;2023-08-07T09:02:00;4.17;;;2.70;;
13816;SDS011;6979;52.116;5.286;2023-08-07T09:04:27;5.17;;;3.03;;
13816;SDS011;6979;52.116;5.286;2023-08-07T09:06:58;4.17;;;2.60;;
13816;SDS011;6979;52.116;5.286;2023-08-07T09:09:25;6.70;;;2.77;;
13816;SDS011;6979;52.116;5.286;2023-08-07T09:11:53;6.13;;;2.90;;
13816;SDS011;6979;52.116;5.286;2023-08-07T09:14:25;3.77;;;2.70;;
13816;SDS011;6979;52.116;5.286;2023-08-07T09:16:56;5.77;;;3.20;;
13816;SDS011;6979;52.116;5.286;2023-08-07T09:19:25;5.87;;;3.07;;
13816;SDS011;6979;52.116;5.286;2023-08-07T09:21:53;5.50;;;2.93;;
13816;SDS011;6979;52.116;5.286;2023-08-07T09:24:21;6.57;;;2.80;;
13816;SDS011;6979;52.116;5.286;2023-08-07T09:26:48;3.20;;;2.90;;
13816;SDS011;6979;52.116;5.286;2023-08-07T09:29:18;3.50;;;2.50;;
13816;SDS011;6979;52.116;5.286;2023-08-07T09:31:46;6.13;;;2.90;;
13816;SDS011;6979;52.116;5.286;2023-08-07T09:34:13;4.17;;;2.90;;
13816;SDS011;6979;52.116;5.286;2023-08-07T09:36:43;5.70;;;3.17;;
13816;SDS011;6979;52.116;5.286;2023-08-07T09:39:10;3.83;;;2.63;;
13816;SDS011;6979;52.116;5.286;2023-08-07T09:41:38;5.40;;;2.77;;
13816;SDS011;6979;52.116;5.286;2023-08-07T09:44:06;9.10;;;3.10;;
13816;SDS011;6979;52.116;5.286;2023-08-07T09:46:40;5.57;;;3.07;;
13816;SDS011;6979;52.116;5.286;2023-08-07T09:49:07;5.93;;;3.07;;
13816;SDS011;6979;52.116;5.286;2023-08-07T09:51:40;5.67;;;2.57;;
13816;SDS011;6979;52.116;5.286;2023-08-07T09:54:08;5.93;;;3.30;;
13816;SDS011;6979;52.116;5.286;2023-08-07T09:56:36;5.97;;;2.63;;
13816;SDS011;6979;52.116;5.286;2023-08-07T09:59:05;4.80;;;3.00;;
13816;SDS011;6979;52.116;5.286;2023-08-07T10:01:33;7.60;;;2.90;;
13816;SDS011;6979;52.116;5.286;2023-08-07T10:04:04;6.50;;;2.80;;
13816;SDS011;6979;52.116;5.286;2023-08-07T10:06:31;7.10;;;3.33;;
13816;SDS011;6979;52.116;5.286;2023-08-07T10:08:58;6.10;;;3.03;;
13816;SDS011;6979;52.116;5.286;2023-08-07T10:11:27;5.13;;;2.40;;
13816;SDS011;6979;52.116;5.286;2023-08-07T10:13:55;6.13;;;2.57;;
13816;SDS011;6979;52.116;5.286;2023-08-07T10:16:24;4.37;;;2.17;;
13816;SDS011;6979;52.116;5.286;2023-08-07T10:18:53;5.67;;;2.83;;
13816;SDS011;6979;52.116;5.286;2023-08-07T10:21:20;4.17;;;2.27;;
13816;SDS011;6979;52.116;5.286;2023-08-07T10:23:48;3.63;;;2.43;;
13816;SDS011;6979;52.116;5.286;2023-08-07T10:26:19;4.60;;;2.40;;
13816;SDS011;6979;52.116;5.286;2023-08-07T10:28:47;6.60;;;2.63;;
13816;SDS011;6979;52.116;5.286;2023-08-07T10:31:18;5.17;;;2.70;;
13816;SDS011;6979;52.116;5.286;2023-08-07T10:33:49;5.00;;;2.63;;
13816;SDS011;6979;52.116;5.286;2023-08-07T10:36:17;4.17;;;2.57;;
13816;SDS011;6979;52.116;5.286;2023-08-07T10:38:45;3.87;;;2.53;;
13816;SDS011;6979;52.116;5.286;2023-08-07T10:41:15;4.73;;;2.53;;
13816;SDS011;6979;52.116;5.286;2023-08-07T10:43:47;5.03;;;2.17;;
13816;SDS011;6979;52.116;5.286;2023-08-07T10:46:15;4.40;;;2.90;;
13816;SDS011;6979;52.116;5.286;2023-08-07T10:48:46;7.53;;;3.13;;
13816;SDS011;6979;52.116;5.286;2023-08-07T10:51:17;6.47;;;2.70;;
13816;SDS011;6979;52.116;5.286;2023-08-07T10:53:45;4.80;;;2.97;;
13816;SDS011;6979;52.116;5.286;2023-08-07T10:56:16;5.77;;;2.80;;
13816;SDS011;6979;52.116;5.286;2023-08-07T10:58:49;4.07;;;2.17;;
13816;SDS011;6979;52.116;5.286;2023-08-07T11:01:18;3.43;;;2.30;;
13816;SDS011;6979;52.116;5.286;2023-08-07T11:03:49;3.83;;;2.30;;
13816;SDS011;6979;52.116;5.286;2023-08-07T11:06:21;4.87;;;2.40;;
13816;SDS011;6979;52.116;5.286;2023-08-07T11:08:49;3.73;;;2.37;;
13816;SDS011;6979;52.116;5.286;2023-08-07T11:11:17;3.53;;;2.27;;
13816;SDS011;6979;52.116;5.286;2023-08-07T11:13:44;3.83;;;2.50;;
13816;SDS011;6979;52.116;5.286;2023-08-07T11:16:11;6.20;;;2.40;;
13816;SDS011;6979;52.116;5.286;2023-08-07T11:18:39;4.37;;;2.60;;
13816;SDS011;6979;52.116;5.286;2023-08-07T11:21:07;3.40;;;2.07;;
13816;SDS011;6979;52.116;5.286;2023-08-07T11:23:37;3.40;;;2.47;;
13816;SDS011;6979;52.116;5.286;2023-08-07T11:26:04;4.43;;;2.77;;
13816;SDS011;6979;52.116;5.286;2023-08-07T11:28:32;3.70;;;2.47;;
13816;SDS011;6979;52.116;5.286;2023-08-07T11:30:59;7.20;;;3.17;;
13816;SDS011;6979;52.116;5.286;2023-08-07T11:33:27;4.97;;;2.80;;
13816;SDS011;6979;52.116;5.286;2023-08-07T11:35:54;4.63;;;2.73;;
13816;SDS011;6979;52.116;5.286;2023-08-07T11:38:28;4.67;;;2.67;;
13816;SDS011;6979;52.116;5.286;2023-08-07T11:41:00;3.13;;;2.23;;
13816;SDS011;6979;52.116;5.286;2023-08-07T11:43:28;6.70;;;2.97;;
13816;SDS011;6979;52.116;5.286;2023-08-07T11:45:56;4.10;;;2.50;;
13816;SDS011;6979;52.116;5.286;2023-08-07T11:48:24;4.87;;;2.30;;
13816;SDS011;6979;52.116;5.286;2023-08-07T11:50:52;4.27;;;2.10;;
13816;SDS011;6979;52.116;5.286;2023-08-07T11:53:22;5.70;;;3.37;;
13816;SDS011;6979;52.116;5.286;2023-08-07T11:55:54;3.93;;;2.60;;
13816;SDS011;6979;52.116;5.286;2023-08-07T11:58:23;5.27;;;2.80;;
13816;SDS011;6979;52.116;5.286;2023-08-07T12:00:51;4.33;;;2.63;;
13816;SDS011;6979;52.116;5.286;2023-08-07T12:03:25;3.17;;;2.33;;
13816;SDS011;6979;52.116;5.286;2023-08-07T12:05:54;4.43;;;2.53;;
13816;SDS011;6979;52.116;5.286;2023-08-07T12:08:22;3.47;;;2.30;;
13816;SDS011;6979;52.116;5.286;2023-08-07T12:10:50;6.90;;;3.20;;
13816;SDS011;6979;52.116;5.286;2023-08-07T12:13:20;5.77;;;2.20;;
13816;SDS011;6979;52.116;5.286;2023-08-07T12:15:52;3.57;;;2.07;;
13816;SDS011;6979;52.116;5.286;2023-08-07T12:18:20;4.67;;;2.50;;
13816;SDS011;6979;52.116;5.286;2023-08-07T12:20:48;2.87;;;2.00;;
13816;SDS011;6979;52.116;5.286;2023-08-07T12:23:16;4.53;;;2.67;;
13816;SDS011;6979;52.116;5.286;2023-08-07T12:25:44;3.40;;;2.30;;
13816;SDS011;6979;52.116;5.286;2023-08-07T12:28:11;3.00;;;1.90;;
13816;SDS011;6979;52.116;5.286;2023-08-07T12:30:38;2.30;;;1.80;;
13816;SDS011;6979;52.116;5.286;2023-08-07T12:33:07;2.30;;;1.90;;
13816;SDS011;6979;52.116;5.286;2023-08-07T12:35:34;2.50;;;2.00;;
13816;SDS011;6979;52.116;5.286;2023-08-07T12:38:00;2.97;;;2.33;;
13816;SDS011;6979;52.116;5.286;2023-08-07T12:40:28;2.13;;;1.67;;
13816;SDS011;6979;52.116;5.286;2023-08-07T12:42:55;2.00;;;1.53;;
13816;SDS011;6979;52.116;5.286;2023-08-07T12:45:22;2.50;;;2.00;;
13816;SDS011;6979;52.116;5.286;2023-08-07T12:47:49;2.43;;;2.00;;
13816;SDS011;6979;52.116;5.286;2023-08-07T12:50:17;3.40;;;2.23;;
13816;SDS011;6979;52.116;5.286;2023-08-07T12:52:45;5.20;;;1.67;;
13816;SDS011;6979;52.116;5.286;2023-08-07T12:55:11;2.37;;;1.70;;
13816;SDS011;6979;52.116;5.286;2023-08-07T12:57:39;2.77;;;1.77;;
13816;SDS011;6979;52.116;5.286;2023-08-07T13:00:08;4.70;;;1.90;;
13816;SDS011;6979;52.116;5.286;2023-08-07T13:02:37;1.60;;;1.50;;
13816;SDS011;6979;52.116;5.286;2023-08-07T13:05:04;2.43;;;1.73;;
13816;SDS011;6979;52.116;5.286;2023-08-07T13:07:33;3.17;;;2.23;;
13816;SDS011;6979;52.116;5.286;2023-08-07T13:10:00;2.03;;;1.70;;
13816;SDS011;6979;52.116;5.286;2023-08-07T13:12:27;2.50;;;1.50;;
13816;SDS011;6979;52.116;5.286;2023-08-07T13:14:54;1.67;;;1.53;;
13816;SDS011;6979;52.116;5.286;2023-08-07T13:17:20;2.40;;;1.80;;
13816;SDS011;6979;52.116;5.286;2023-08-07T13:19:47;2.83;;;1.83;;
13816;SDS011;6979;52.116;5.286;2023-08-07T13:22:14;4.27;;;1.70;;
13816;SDS011;6979;52.116;5.286;2023-08-07T13:24:42;3.53;;;1.70;;
13816;SDS011;6979;52.116;5.286;2023-08-07T13:27:11;1.90;;;1.70;;
13816;SDS011;6979;52.116;5.286;2023-08-07T13:29:38;2.67;;;1.60;;
13816;SDS011;6979;52.116;5.286;2023-08-07T13:32:05;4.43;;;3.27;;
13816;SDS011;6979;52.116;5.286;2023-08-07T13:34:34;4.33;;;1.80;;
13816;SDS011;6979;52.116;5.286;2023-08-07T13:37:01;2.20;;;1.60;;
13816;SDS011;6979;52.116;5.286;2023-08-07T13:39:29;3.43;;;1.97;;
13816;SDS011;6979;52.116;5.286;2023-08-07T13:41:57;2.77;;;1.37;;
13816;SDS011;6979;52.116;5.286;2023-08-07T13:44:25;2.70;;;1.20;;
13816;SDS011;6979;52.116;5.286;2023-08-07T13:46:52;1.63;;;1.53;;
13816;SDS011;6979;52.116;5.286;2023-08-07T13:49:19;4.43;;;1.60;;
13816;SDS011;6979;52.116;5.286;2023-08-07T13:51:46;2.53;;;1.67;;
13816;SDS011;6979;52.116;5.286;2023-08-07T13:54:13;1.97;;;1.40;;
13816;SDS011;6979;52.116;5.286;2023-08-07T13:56:40;3.80;;;1.37;;
13816;SDS011;6979;52.116;5.286;2023-08-07T13:59:08;2.40;;;1.50;;
13816;SDS011;6979;52.116;5.286;2023-08-07T14:01:35;1.60;;;1.50;;
13816;SDS011;6979;52.116;5.286;2023-08-07T14:04:02;1.63;;;1.50;;
13816;SDS011;6979;52.116;5.286;2023-08-07T14:06:29;1.73;;;1.20;;
13816;SDS011;6979;52.116;5.286;2023-08-07T14:08:58;1.50;;;1.40;;
13816;SDS011;6979;52.116;5.286;2023-08-07T14:11:26;2.00;;;1.23;;
13816;SDS011;6979;52.116;5.286;2023-08-07T14:13:56;2.10;;;1.77;;
13816;SDS011;6979;52.116;5.286;2023-08-07T14:16:24;1.63;;;1.53;;
13816;SDS011;6979;52.116;5.286;2023-08-07T14:18:51;3.43;;;1.50;;
13816;SDS011;6979;52.116;5.286;2023-08-07T14:21:19;1.73;;;1.40;;
13816;SDS011;6979;52.116;5.286;2023-08-07T14:23:46;3.33;;;1.53;;
13816;SDS011;6979;52.116;5.286;2023-08-07T14:26:14;3.07;;;1.90;;
13816;SDS011;6979;52.116;5.286;2023-08-07T14:28:43;3.00;;;1.97;;
13816;SDS011;6979;52.116;5.286;2023-08-07T14:31:10;1.60;;;1.50;;
13816;SDS011;6979;52.116;5.286;2023-08-07T14:33:38;1.87;;;1.60;;
13816;SDS011;6979;52.116;5.286;2023-08-07T14:36:05;1.50;;;1.40;;
13816;SDS011;6979;52.116;5.286;2023-08-07T14:38:32;1.67;;;1.57;;
13816;SDS011;6979;52.116;5.286;2023-08-07T14:40:59;7.90;;;2.10;;
13816;SDS011;6979;52.116;5.286;2023-08-07T14:43:28;2.73;;;2.10;;
13816;SDS011;6979;52.116;5.286;2023-08-07T14:45:55;2.60;;;1.73;;
13816;SDS011;6979;52.116;5.286;2023-08-07T14:48:22;2.57;;;2.37;;
13816;SDS011;6979;52.116;5.286;2023-08-07T14:50:51;1.63;;;1.53;;
13816;SDS011;6979;52.116;5.286;2023-08-07T14:53:18;1.97;;;1.70;;
13816;SDS011;6979;52.116;5.286;2023-08-07T14:55:45;1.70;;;1.60;;
13816;SDS011;6979;52.116;5.286;2023-08-07T14:58:12;3.07;;;1.60;;
13816;SDS011;6979;52.116;5.286;2023-08-07T15:00:39;3.37;;;2.00;;
13816;SDS011;6979;52.116;5.286;2023-08-07T15:03:06;1.77;;;1.67;;
13816;SDS011;6979;52.116;5.286;2023-08-07T15:05:33;3.03;;;1.80;;